Etusivu
METAR-TAF:

METAR-TAF

Lentoasemat :

Burns, Oregon, Yhdysvallat

Leveyspiiri: 43-35-42N, Pituuspiiri: 118-57-23W, korkeus merenpinnasta: 1263 m

Tämänhetkinen sää

Tämä raportti tehtiin 21 minuuttia sitten, kello 22.53 UTC
Tuuli 9 kn idästä
Lämpötila 12°C
Kosteus 32%
Ilmanpaine 1027 hPa
Näkyvyys: 16.1 km
selkeää

METAR: KBNO 112253Z AUTO 08009KT 10SM CLR 12/M04 A3032 RMK AO2 SLP282 T01171044

Aika: 15:14 (23:14 UTC)

Sääennuste

Tämä raportti tehtiin 5 tuntia ja 53 minuuttia sitten, kello 17.21 UTC
Ennuste voimassa 11. päivästä klo 18 UTC - 12. päivään klo 18 UTC
Tuuli 6 kn idästä/koillisesta
Näkyvyys: 10 km
Hajanaisia pilviä 20000 ft:n korkeudessa
From 12. päivästä klo 0300 UTC
Tuuli 4 kn eri suunnista
Näkyvyys: 10 km
Hajanaisia pilviä 20000 ft:n korkeudessa

TAF: KBNO 111721Z 1118/1218 07006KT P6SM SCT200 FM120300 VRB04KT P6SM SCT200

Säähavainnot ja -ennusteet yli 4000 lentoasemalta (METAR- ja TAF-raportit).

Käytössä olevat sääasemat on merkitty karttaan keltaisilla ja punaisilla pisteillä.

Aseta hiiri pisteen päälle nähdäksesi sääaseman nimen.

Klikkaa sitten nähdäksesi säähavainnot ja -ennusteet.

Kartan vaihtaminen: klikkaa mustalla rastilla varustettuja vihreitä pisteitä, niin voit zoomata sisään; viivalla varustettua vihreää pistettä, niin voit zoomata ulos tai vihreitä nuolia, niin pääset viereisille kartoille.


METAR-TAF: